Time;durP1;ratioP1;P1;durP2;ratioP2;P2;SDS_P1;SDS_P2;PMS_P1;PMS_P2;Temp;Humidity;BMP_temperature;BMP_pressure;BME280_temperature;BME280_humidity;BME280_pressure;Samples;Min_cycle;Max_cycle;Signal;HPM_P1;HPM_P2
2022/04/14 00:00:48;;;;;;;5.65;2.00;;;3.60;99.90;;;;;;5015358;28;20404;-91
2022/04/14 00:03:16;;;;;;;4.18;2.20;;;3.60;99.90;;;;;;4986743;28;20453;-91
2022/04/14 00:05:43;;;;;;;3.50;1.98;;;3.60;99.90;;;;;;5014326;28;20431;-91
2022/04/14 00:08:11;;;;;;;3.17;1.92;;;3.60;99.90;;;;;;5016755;28;20435;-91
2022/04/14 00:10:39;;;;;;;4.05;1.90;;;3.60;99.90;;;;;;5015297;28;20405;-91
2022/04/14 00:13:06;;;;;;;4.80;2.20;;;3.60;99.90;;;;;;4996100;28;20417;-91
2022/04/14 00:15:34;;;;;;;3.80;1.83;;;3.70;99.90;;;;;;5029275;28;20985;-91
2022/04/14 00:18:02;;;;;;;3.22;1.80;;;3.60;99.90;;;;;;5037395;28;20469;-91
2022/04/14 00:20:29;;;;;;;4.03;2.20;;;3.60;99.90;;;;;;5014300;28;20401;-90
2022/04/14 00:22:57;;;;;;;3.85;1.80;;;3.70;99.90;;;;;;5017637;28;20399;-90
2022/04/14 00:25:26;;;;;;;5.10;2.00;;;3.60;99.90;;;;;;5013617;28;20409;-91
2022/04/14 00:27:53;;;;;;;5.40;1.95;;;3.80;99.90;;;;;;5032481;28;20408;-91
2022/04/14 00:30:21;;;;;;;4.27;1.97;;;3.80;99.90;;;;;;5022944;28;20415;-90
2022/04/14 00:32:48;;;;;;;4.60;1.80;;;3.80;99.90;;;;;;5013613;28;20400;-90
2022/04/14 00:35:16;;;;;;;4.20;1.85;;;3.70;99.90;;;;;;5034941;28;20413;-91
2022/04/14 00:37:44;;;;;;;4.18;1.83;;;3.70;99.90;;;;;;5032814;28;20435;-91
2022/04/14 00:40:13;;;;;;;4.50;2.00;;;3.50;99.90;;;;;;5009196;28;20418;-90
2022/04/14 00:42:40;;;;;;;3.40;1.90;;;3.60;99.90;;;;;;4995331;28;20419;-91
2022/04/14 00:45:09;;;;;;;3.92;1.63;;;3.60;99.90;;;;;;5017194;28;20402;-91
2022/04/14 00:47:38;;;;;;;3.13;1.83;;;3.60;99.90;;;;;;5031640;28;20407;-90
2022/04/14 00:50:06;;;;;;;3.70;1.75;;;3.60;99.90;;;;;;5031879;28;20443;-91
2022/04/14 00:52:33;;;;;;;3.10;1.50;;;3.70;99.90;;;;;;5004640;28;20409;-91
2022/04/14 00:55:02;;;;;;;2.70;1.60;;;3.60;99.90;;;;;;5030447;28;20405;-91
2022/04/14 00:57:29;;;;;;;3.03;1.45;;;3.50;99.90;;;;;;5036270;28;20930;-92
2022/04/14 00:59:57;;;;;;;3.47;1.67;;;3.60;99.90;;;;;;5029667;28;20503;-92
2022/04/14 01:02:25;;;;;;;2.55;1.45;;;3.60;99.90;;;;;;5035876;28;20474;-90
2022/04/14 01:04:53;;;;;;;2.80;1.50;;;3.50;99.90;;;;;;5010102;28;20921;-91
2022/04/14 01:07:21;;;;;;;4.03;1.65;;;3.40;99.90;;;;;;5001765;28;20785;-91
2022/04/14 01:09:49;;;;;;;3.17;1.50;;;3.50;99.90;;;;;;5018604;28;20398;-91
2022/04/14 01:12:16;;;;;;;3.20;1.50;;;3.50;99.90;;;;;;5070894;28;20516;-91
2022/04/14 01:14:45;;;;;;;2.93;1.57;;;3.50;99.90;;;;;;5016123;28;20413;-91
2022/04/14 01:17:12;;;;;;;4.85;1.60;;;3.50;99.90;;;;;;4997464;28;20417;-90
2022/04/14 01:19:40;;;;;;;3.42;1.50;;;3.50;99.90;;;;;;5005935;28;20415;-91
2022/04/14 01:22:28;;;;;;;2.55;1.50;;;3.60;99.90;;;;;;5033378;28;20766;-91
2022/04/14 01:24:58;;;;;;;3.47;1.50;;;3.60;99.90;;;;;;5013783;28;20510;-91
2022/04/14 01:27:26;;;;;;;3.83;1.67;;;3.50;99.90;;;;;;5023780;28;20902;-92
2022/04/14 01:29:55;;;;;;;2.58;1.40;;;3.50;99.90;;;;;;5037935;28;20912;-91
2022/04/14 01:32:23;;;;;;;3.30;1.48;;;3.50;99.90;;;;;;5038865;28;20901;-91
2022/04/14 01:34:51;;;;;;;3.05;1.40;;;3.50;99.90;;;;;;5016697;28;20413;-91
2022/04/14 01:37:19;;;;;;;2.27;1.50;;;3.50;99.90;;;;;;5034481;28;20428;-91
2022/04/14 01:39:47;;;;;;;4.13;1.40;;;3.50;99.90;;;;;;5030991;28;20922;-91
2022/04/14 01:42:15;;;;;;;3.70;1.50;;;3.50;99.90;;;;;;5038117;28;20402;-92
2022/04/14 01:44:42;;;;;;;2.75;1.40;;;3.60;99.90;;;;;;5019013;28;20406;-91
2022/04/14 01:47:10;;;;;;;3.33;1.58;;;3.70;99.90;;;;;;5014538;28;20429;-92
2022/04/14 01:49:38;;;;;;;4.05;1.50;;;3.60;99.90;;;;;;5020464;28;20466;-91
2022/04/14 01:52:05;;;;;;;3.45;1.48;;;3.50;99.90;;;;;;5034619;27;20418;-91
2022/04/14 01:54:33;;;;;;;2.60;1.40;;;3.60;99.90;;;;;;5022985;28;20816;-92
2022/04/14 01:57:01;;;;;;;2.70;1.48;;;3.60;99.90;;;;;;5026910;28;20409;-91
2022/04/14 01:59:32;;;;;;;3.95;1.40;;;3.60;99.90;;;;;;5018315;28;20531;-91
2022/04/14 02:02:00;;;;;;;2.60;1.40;;;3.50;99.90;;;;;;5020762;28;20409;-91
2022/04/14 02:04:28;;;;;;;4.17;1.20;;;3.50;99.90;;;;;;5009213;28;20401;-91
2022/04/14 02:06:55;;;;;;;3.33;1.50;;;3.50;99.90;;;;;;5005199;28;20419;-91
2022/04/14 02:09:23;;;;;;;2.75;1.33;;;3.60;99.90;;;;;;5023296;28;20512;-91
2022/04/14 02:11:51;;;;;;;2.60;1.30;;;3.70;99.90;;;;;;5037482;28;20839;-91
2022/04/14 02:14:19;;;;;;;3.42;1.40;;;3.70;99.90;;;;;;5026618;28;20436;-92
2022/04/14 02:16:46;;;;;;;2.83;1.23;;;3.60;99.90;;;;;;5021075;28;20401;-92
2022/04/14 02:19:14;;;;;;;2.60;1.42;;;3.60;99.90;;;;;;5032255;28;20444;-91
2022/04/14 02:21:41;;;;;;;2.57;1.20;;;3.40;99.90;;;;;;5010037;28;20438;-92
2022/04/14 02:24:09;;;;;;;2.38;1.23;;;3.60;99.90;;;;;;5022351;28;20407;-91
2022/04/14 02:26:37;;;;;;;2.88;1.10;;;3.60;99.90;;;;;;5017354;28;20403;-91
2022/04/14 02:29:04;;;;;;;4.10;1.13;;;3.60;99.90;;;;;;5023457;28;20441;-91
2022/04/14 02:31:32;;;;;;;2.50;1.15;;;3.70;99.90;;;;;;5027277;28;20447;-91
2022/04/14 02:34:00;;;;;;;2.85;1.35;;;3.70;99.90;;;;;;5016261;28;20448;-90
2022/04/14 02:36:27;;;;;;;2.83;1.20;;;3.70;99.90;;;;;;5003093;28;20407;-91
2022/04/14 02:38:55;;;;;;;2.90;1.20;;;3.60;99.90;;;;;;5040503;28;20401;-92
2022/04/14 02:41:23;;;;;;;3.03;1.17;;;3.60;99.90;;;;;;5025348;28;20435;-91
2022/04/14 02:43:50;;;;;;;2.50;1.23;;;3.60;99.90;;;;;;5008427;28;20394;-92
2022/04/14 02:46:18;;;;;;;1.50;1.10;;;3.60;99.90;;;;;;5007571;28;20397;-91
2022/04/14 02:48:45;;;;;;;3.93;1.30;;;3.60;99.90;;;;;;5043875;28;20485;-91
2022/04/14 02:51:13;;;;;;;3.92;1.50;;;3.50;99.90;;;;;;5035657;28;20414;-91
2022/04/14 02:53:41;;;;;;;2.83;1.38;;;3.40;99.90;;;;;;4991377;28;20398;-91
2022/04/14 02:56:10;;;;;;;2.35;1.23;;;3.60;99.90;;;;;;5082978;28;20409;-92
2022/04/14 02:58:37;;;;;;;3.25;1.27;;;3.70;99.90;;;;;;5015666;28;20386;-92
2022/04/14 03:01:05;;;;;;;1.85;1.08;;;3.50;99.90;;;;;;5033142;28;20403;-90
2022/04/14 03:03:33;;;;;;;1.92;1.30;;;3.60;99.90;;;;;;5016076;28;20408;-91
2022/04/14 03:06:00;;;;;;;2.70;1.08;;;3.60;99.90;;;;;;5017469;28;20436;-91
2022/04/14 03:08:28;;;;;;;3.83;1.50;;;3.60;99.90;;;;;;5027239;28;20437;-91
2022/04/14 03:10:56;;;;;;;3.83;1.52;;;3.60;99.90;;;;;;5015554;28;20464;-92
2022/04/14 03:13:24;;;;;;;3.13;1.33;;;3.60;99.90;;;;;;5052423;28;20465;-91
2022/04/14 03:15:52;;;;;;;2.92;1.25;;;3.60;99.90;;;;;;5044343;28;20401;-91
2022/04/14 03:18:19;;;;;;;2.63;1.35;;;3.60;99.90;;;;;;5027080;28;20502;-90
2022/04/14 03:20:47;;;;;;;2.45;1.25;;;3.60;99.90;;;;;;5006841;28;20405;-92
2022/04/14 03:23:15;;;;;;;3.00;1.27;;;3.50;99.90;;;;;;5036321;28;20430;-91
2022/04/14 03:25:44;;;;;;;2.58;1.30;;;3.50;99.90;;;;;;5015919;28;20970;-91
2022/04/14 03:28:15;;;;;;;2.92;1.17;;;3.50;99.90;;;;;;5039778;28;20405;-92
2022/04/14 03:30:43;;;;;;;3.05;1.40;;;3.50;99.90;;;;;;5016007;28;20506;-90
2022/04/14 03:33:11;;;;;;;2.35;1.27;;;3.50;99.90;;;;;;5035875;28;20408;-91
2022/04/14 03:35:39;;;;;;;4.07;1.45;;;3.60;99.90;;;;;;5021953;28;20450;-91
2022/04/14 03:38:06;;;;;;;2.78;1.20;;;3.60;99.90;;;;;;5024423;28;20590;-92
2022/04/14 03:40:55;;;;;;;2.15;1.13;;;3.40;99.90;;;;;;5020643;28;20975;-91
2022/04/14 03:43:23;;;;;;;2.90;1.33;;;3.30;99.90;;;;;;5029253;28;20497;-92
2022/04/14 03:45:50;;;;;;;2.88;1.20;;;3.40;99.90;;;;;;5006876;28;20471;-91
2022/04/14 03:48:18;;;;;;;3.20;1.47;;;3.50;99.90;;;;;;5019837;28;20393;-91
2022/04/14 03:50:46;;;;;;;2.97;1.20;;;3.50;99.90;;;;;;5018111;28;20443;-92
2022/04/14 03:53:13;;;;;;;3.47;1.20;;;3.50;99.90;;;;;;5011240;28;20412;-92
2022/04/14 03:55:41;;;;;;;2.10;1.20;;;3.50;99.90;;;;;;5018151;28;20407;-90
2022/04/14 03:58:09;;;;;;;4.30;1.48;;;3.30;99.90;;;;;;4986344;28;20481;-91
2022/04/14 04:00:36;;;;;;;2.33;1.23;;;3.30;99.90;;;;;;4995706;28;20490;-91
2022/04/14 04:03:04;;;;;;;3.50;1.30;;;3.40;99.90;;;;;;5009943;28;20912;-91
2022/04/14 04:05:33;;;;;;;1.88;1.00;;;3.50;99.90;;;;;;5029462;28;20409;-92
2022/04/14 04:08:05;;;;;;;2.87;1.40;;;3.60;99.90;;;;;;5002226;28;20406;-91
2022/04/14 04:10:33;;;;;;;3.37;1.20;;;3.50;99.90;;;;;;5031459;28;20411;-92
2022/04/14 04:13:00;;;;;;;2.22;1.13;;;3.50;99.90;;;;;;5026775;28;20412;-91
2022/04/14 04:15:28;;;;;;;2.63;1.08;;;3.40;99.90;;;;;;5018224;28;20425;-92
2022/04/14 04:17:56;;;;;;;3.93;1.30;;;3.50;99.90;;;;;;5033835;28;20831;-92
2022/04/14 04:20:25;;;;;;;3.70;1.40;;;3.40;99.90;;;;;;5038198;28;20404;-92
2022/04/14 04:22:52;;;;;;;2.60;1.10;;;3.30;99.90;;;;;;5036824;28;20431;-92
2022/04/14 04:25:20;;;;;;;2.40;1.08;;;3.30;99.90;;;;;;5009458;28;20409;-91
2022/04/14 04:27:48;;;;;;;2.83;1.08;;;3.40;99.90;;;;;;5025263;28;20487;-92
2022/04/14 04:30:16;;;;;;;4.22;1.55;;;3.50;99.90;;;;;;4984414;28;20412;-91
2022/04/14 04:32:44;;;;;;;3.22;1.48;;;3.50;99.90;;;;;;5003516;28;20395;-90
2022/04/14 04:35:12;;;;;;;2.72;1.30;;;3.50;99.90;;;;;;4995491;28;20867;-90
2022/04/14 04:37:41;;;;;;;3.95;1.60;;;3.50;99.90;;;;;;5030529;28;20905;-92
2022/04/14 04:40:09;;;;;;;2.53;1.20;;;3.60;99.90;;;;;;5021865;28;20409;-92
2022/04/14 04:42:37;;;;;;;4.28;1.20;;;3.60;99.90;;;;;;4993031;28;20463;-92
2022/04/14 04:45:05;;;;;;;2.60;1.27;;;3.60;99.90;;;;;;5027176;28;20499;-92
2022/04/14 04:47:33;;;;;;;6.43;2.65;;;3.60;99.90;;;;;;4999224;28;20513;-92
2022/04/14 04:50:01;;;;;;;5.05;2.38;;;3.60;99.90;;;;;;5031075;27;20407;-91
2022/04/14 04:52:30;;;;;;;3.33;1.48;;;3.60;99.90;;;;;;5015681;28;20442;-89
2022/04/14 04:54:57;;;;;;;3.40;1.38;;;3.70;99.90;;;;;;5008978;28;20407;-92
2022/04/14 04:57:25;;;;;;;6.73;2.57;;;3.60;99.90;;;;;;5009488;28;20429;-92
2022/04/14 04:59:52;;;;;;;4.72;1.98;;;3.70;99.90;;;;;;5013274;27;20438;-92
2022/04/14 05:02:20;;;;;;;3.63;1.38;;;3.80;99.90;;;;;;4996415;28;20483;-91
2022/04/14 05:04:48;;;;;;;6.57;2.97;;;3.80;99.90;;;;;;5019355;28;20402;-91
2022/04/14 05:07:16;;;;;;;5.15;1.83;;;3.80;99.90;;;;;;4992988;28;20437;-88
2022/04/14 05:09:43;;;;;;;9.90;3.45;;;3.80;99.90;;;;;;5051948;28;20410;-91
2022/04/14 05:12:11;;;;;;;7.82;1.90;;;3.90;99.90;;;;;;5000583;28;20452;-90
2022/04/14 05:14:39;;;;;;;2.95;1.50;;;3.90;99.90;;;;;;5014760;28;20967;-91
2022/04/14 05:17:06;;;;;;;5.10;1.63;;;4.00;99.90;;;;;;5013628;28;20410;-91
2022/04/14 05:19:34;;;;;;;4.93;1.90;;;4.00;99.90;;;;;;5007323;28;20405;-91
2022/04/14 05:22:01;;;;;;;5.90;2.30;;;4.00;99.90;;;;;;4982217;28;20406;-91
2022/04/14 05:24:31;;;;;;;6.15;2.70;;;4.10;99.90;;;;;;5047275;28;20405;-90
2022/04/14 05:26:59;;;;;;;5.00;2.08;;;4.10;99.90;;;;;;5022921;28;20437;-92
2022/04/14 05:29:26;;;;;;;6.95;2.50;;;4.10;99.90;;;;;;5020308;28;20445;-90
2022/04/14 05:31:54;;;;;;;4.60;2.10;;;4.10;99.90;;;;;;4992588;28;20765;-91
2022/04/14 05:34:22;;;;;;;3.58;1.60;;;4.20;99.90;;;;;;5003638;28;20494;-91
2022/04/14 05:36:49;;;;;;;3.92;1.75;;;4.20;99.90;;;;;;5000933;28;20490;-90
2022/04/14 05:39:17;;;;;;;4.27;1.70;;;4.20;99.90;;;;;;5051290;28;20492;-91
2022/04/14 05:41:44;;;;;;;3.22;1.65;;;4.30;99.90;;;;;;5035215;28;20413;-91
2022/04/14 05:44:12;;;;;;;4.33;1.70;;;4.30;99.90;;;;;;5017689;28;20403;-91
2022/04/14 05:46:40;;;;;;;3.88;1.70;;;4.30;99.90;;;;;;5019263;28;20398;-91
2022/04/14 05:49:08;;;;;;;4.55;2.00;;;4.30;99.90;;;;;;5050673;28;20911;-93
2022/04/14 05:51:36;;;;;;;5.13;1.90;;;4.40;99.90;;;;;;5032443;28;20419;-91
2022/04/14 05:54:04;;;;;;;4.93;2.15;;;4.40;99.90;;;;;;5019750;28;20407;-91
2022/04/14 05:56:31;;;;;;;5.05;1.95;;;4.40;99.90;;;;;;5023050;28;20480;-91
2022/04/14 05:58:59;;;;;;;5.45;2.35;;;4.50;99.90;;;;;;5042445;28;20410;-90
2022/04/14 06:01:27;;;;;;;4.30;2.35;;;4.50;99.90;;;;;;5014929;28;20414;-90
2022/04/14 06:03:55;;;;;;;7.60;2.77;;;4.60;99.90;;;;;;4987916;28;20442;-91
2022/04/14 06:06:22;;;;;;;4.25;2.33;;;4.70;99.90;;;;;;5010394;28;20428;-91
2022/04/14 06:08:50;;;;;;;8.07;3.03;;;4.60;99.90;;;;;;5007911;28;20468;-92
2022/04/14 06:11:18;;;;;;;7.03;2.90;;;4.70;99.90;;;;;;5006498;28;20528;-91
2022/04/14 06:13:45;;;;;;;7.43;3.42;;;4.60;99.90;;;;;;5020196;28;20414;-91
2022/04/14 06:16:13;;;;;;;6.95;3.55;;;4.70;99.90;;;;;;5008826;28;20403;-91
2022/04/14 06:18:47;;;;;;;9.15;3.92;;;4.70;99.90;;;;;;5033600;28;20506;-92
2022/04/14 06:21:15;;;;;;;8.70;4.07;;;4.60;99.90;;;;;;5003788;28;20810;-91
2022/04/14 06:23:42;;;;;;;7.63;3.72;;;4.60;99.90;;;;;;5033716;28;20408;-92
2022/04/14 06:26:10;;;;;;;7.90;3.75;;;4.60;99.90;;;;;;5017790;28;20519;-92
2022/04/14 06:28:39;;;;;;;8.60;4.27;;;4.60;99.90;;;;;;5056800;28;20410;-91
2022/04/14 06:31:07;;;;;;;10.45;4.28;;;4.70;99.90;;;;;;5017338;28;20472;-91
2022/04/14 06:33:34;;;;;;;9.20;4.20;;;4.70;99.90;;;;;;5003954;28;20405;-92
2022/04/14 06:36:02;;;;;;;7.13;3.72;;;4.70;99.90;;;;;;5028123;28;20437;-90
2022/04/14 06:38:30;;;;;;;8.55;3.50;;;4.70;99.90;;;;;;5000357;28;20397;-91
2022/04/14 06:40:57;;;;;;;8.15;3.70;;;4.70;99.90;;;;;;5033263;28;20463;-90
2022/04/14 06:43:25;;;;;;;8.82;3.22;;;4.70;99.90;;;;;;5016565;28;20396;-91
2022/04/14 06:45:53;;;;;;;7.85;3.35;;;4.80;99.90;;;;;;5010299;28;20392;-90
2022/04/14 06:48:21;;;;;;;7.88;3.22;;;4.80;99.90;;;;;;5023061;28;20766;-90
2022/04/14 06:50:48;;;;;;;5.60;3.17;;;4.90;99.90;;;;;;5018032;28;20436;-90
2022/04/14 06:53:16;;;;;;;5.82;3.15;;;4.90;99.90;;;;;;5013394;28;20498;-90
2022/04/14 06:55:47;;;;;;;6.65;3.17;;;5.00;99.90;;;;;;5017016;28;20403;-92
2022/04/14 06:58:15;;;;;;;4.93;3.40;;;5.00;99.90;;;;;;5014146;28;20474;-90
2022/04/14 07:00:43;;;;;;;6.75;3.13;;;5.00;99.90;;;;;;5018715;28;20448;-91
2022/04/14 07:03:10;;;;;;;4.38;2.70;;;5.00;99.90;;;;;;5007185;28;20555;-92
2022/04/14 07:05:38;;;;;;;5.82;2.85;;;5.00;99.90;;;;;;5006776;28;20416;-91
2022/04/14 07:08:06;;;;;;;8.33;3.57;;;5.00;99.90;;;;;;5019876;28;20449;-92
2022/04/14 07:10:33;;;;;;;10.82;4.82;;;5.10;99.90;;;;;;5007148;28;20554;-91
2022/04/14 07:13:05;;;;;;;9.87;4.60;;;5.10;99.90;;;;;;5006728;28;20499;-91
2022/04/14 07:15:33;;;;;;;8.03;4.27;;;5.10;99.90;;;;;;5003783;28;20831;-91
2022/04/14 07:18:02;;;;;;;8.30;4.30;;;5.10;99.90;;;;;;5003087;28;20463;-90
2022/04/14 07:20:32;;;;;;;9.93;4.67;;;5.10;99.90;;;;;;5020514;28;20408;-92
2022/04/14 07:23:03;;;;;;;10.82;5.03;;;5.10;99.90;;;;;;5010406;28;20439;-90
2022/04/14 07:25:34;;;;;;;10.23;4.85;;;5.10;99.90;;;;;;5015577;28;20427;-92
2022/04/14 07:28:04;;;;;;;13.38;5.90;;;5.20;99.90;;;;;;5013933;28;20504;-90
2022/04/14 07:30:32;;;;;;;12.93;5.95;;;5.30;99.90;;;;;;5022583;28;20392;-90
2022/04/14 07:33:00;;;;;;;14.45;6.82;;;5.40;99.90;;;;;;5013218;28;20396;-90
2022/04/14 07:35:28;;;;;;;15.30;6.63;;;5.50;99.90;;;;;;5026910;28;20764;-91
2022/04/14 07:37:56;;;;;;;15.90;6.90;;;5.50;99.90;;;;;;5009505;28;20405;-91
2022/04/14 07:40:24;;;;;;;11.00;5.35;;;5.50;99.90;;;;;;5018715;28;20424;-90
2022/04/14 07:42:55;;;;;;;10.52;4.95;;;5.60;99.90;;;;;;5013348;28;20928;-90
2022/04/14 07:45:22;;;;;;;9.13;4.53;;;5.70;99.90;;;;;;5027016;28;20457;-91
2022/04/14 07:47:50;;;;;;;9.53;4.60;;;5.70;99.90;;;;;;5018659;28;20481;-93
2022/04/14 07:50:20;;;;;;;10.60;4.60;;;5.70;99.90;;;;;;5056205;28;20494;-91
2022/04/14 07:52:56;;;;;;;10.13;4.70;;;5.80;99.90;;;;;;5032327;28;20456;-90
2022/04/14 07:55:30;;;;;;;11.07;4.97;;;5.80;99.90;;;;;;5028366;28;20409;-91
2022/04/14 07:58:06;;;;;;;10.00;5.07;;;5.80;99.90;;;;;;5058052;27;20410;-91
2022/04/14 08:00:36;;;;;;;9.77;4.65;;;5.90;99.90;;;;;;5016414;28;20442;-91
2022/04/14 08:03:04;;;;;;;10.48;4.80;;;6.00;99.90;;;;;;5016801;28;20508;-92
2022/04/14 08:05:34;;;;;;;13.70;5.85;;;6.10;99.90;;;;;;5035463;28;20432;-91
2022/04/14 08:08:11;;;;;;;10.02;4.75;;;6.10;99.90;;;;;;5004073;28;20434;-91
2022/04/14 08:10:40;;;;;;;9.02;4.72;;;6.10;99.90;;;;;;5037218;28;20476;-91
2022/04/14 08:13:08;;;;;;;9.53;4.63;;;6.20;99.90;;;;;;5023406;28;20416;-91
2022/04/14 08:15:38;;;;;;;8.80;4.30;;;6.30;99.90;;;;;;5013995;28;20444;-90
2022/04/14 08:18:07;;;;;;;9.30;4.20;;;6.40;99.90;;;;;;5021608;28;20544;-91
2022/04/14 08:20:41;;;;;;;9.38;4.45;;;6.50;99.90;;;;;;5020509;28;20498;-91
2022/04/14 08:23:14;;;;;;;9.23;4.37;;;6.60;99.90;;;;;;5012507;28;20412;-91
2022/04/14 08:25:42;;;;;;;12.25;4.78;;;6.70;99.90;;;;;;5014380;28;20499;-92
2022/04/14 08:28:30;;;;;;;11.55;4.35;;;6.80;99.90;;;;;;5016702;28;20480;-90
2022/04/14 08:30:58;;;;;;;9.52;4.03;;;7.00;99.90;;;;;;5017436;28;20407;-91
2022/04/14 08:33:26;;;;;;;7.60;3.50;;;7.10;99.90;;;;;;5030656;28;20437;-91
2022/04/14 08:35:54;;;;;;;8.32;3.20;;;7.20;99.90;;;;;;5018221;28;20394;-91
2022/04/14 08:38:22;;;;;;;8.98;3.72;;;7.10;99.90;;;;;;5013661;28;20429;-91
2022/04/14 08:40:57;;;;;;;6.63;2.97;;;7.20;99.90;;;;;;5013783;28;20394;-91
2022/04/14 08:43:51;;;;;;;7.00;2.90;;;7.20;99.90;;;;;;5031652;28;20431;-90
2022/04/14 08:46:19;;;;;;;6.85;2.95;;;7.30;99.90;;;;;;5012572;28;20963;-91
2022/04/14 08:48:52;;;;;;;6.95;2.95;;;7.30;99.90;;;;;;5035196;28;20405;-91
2022/04/14 08:51:21;;;;;;;8.73;3.17;;;7.40;99.90;;;;;;5007934;28;20464;-91
2022/04/14 08:53:50;;;;;;;6.88;2.83;;;7.70;99.90;;;;;;5013911;28;20399;-91
2022/04/14 08:56:23;;;;;;;5.18;2.33;;;7.50;99.90;;;;;;5033618;28;20403;-91
2022/04/14 08:58:55;;;;;;;5.22;2.28;;;7.50;99.90;;;;;;5020197;28;20480;-91
2022/04/14 09:01:27;;;;;;;5.37;2.10;;;7.70;99.90;;;;;;5031332;28;20994;-91
2022/04/14 09:03:59;;;;;;;9.05;2.83;;;7.70;99.90;;;;;;5039551;28;20439;-90
2022/04/14 09:06:29;;;;;;;5.90;2.40;;;7.70;99.90;;;;;;5015772;28;20504;-91
2022/04/14 09:08:59;;;;;;;6.88;2.30;;;7.60;99.90;;;;;;5012738;28;20413;-91
2022/04/14 09:11:29;;;;;;;8.40;2.33;;;7.70;99.90;;;;;;5047975;27;20499;-91
2022/04/14 09:13:59;;;;;;;3.87;1.97;;;7.70;99.90;;;;;;5019646;28;20394;-91
2022/04/14 09:16:30;;;;;;;5.95;2.10;;;7.90;99.90;;;;;;5002820;28;20994;-91
2022/04/14 09:19:03;;;;;;;6.95;2.38;;;8.10;99.90;;;;;;5013504;28;20407;-91
2022/04/14 09:21:32;;;;;;;6.28;2.42;;;8.00;99.90;;;;;;5012973;28;20409;-92
2022/04/14 09:24:00;;;;;;;5.33;2.47;;;8.10;99.90;;;;;;5042265;28;20429;-92
2022/04/14 09:26:30;;;;;;;5.93;2.70;;;8.10;99.90;;;;;;5003780;28;20443;-91
2022/04/14 09:29:10;;;;;;;6.10;2.58;;;8.30;99.90;;;;;;5030983;28;20407;-90
2022/04/14 09:31:53;;;;;;;8.07;3.10;;;8.30;99.90;;;;;;5045975;28;20417;-92
2022/04/14 09:34:41;;;;;;;7.05;2.75;;;8.60;99.90;;;;;;5030675;28;20411;-90
2022/04/14 09:37:09;;;;;;;7.00;2.63;;;8.50;99.90;;;;;;5038108;28;20387;-91
2022/04/14 09:39:55;;;;;;;6.72;2.78;;;8.50;99.90;;;;;;5012261;28;20503;-92
2022/04/14 09:42:24;;;;;;;7.47;3.00;;;8.40;99.90;;;;;;5020503;28;20413;-92
2022/04/14 09:44:53;;;;;;;6.80;3.08;;;8.30;99.90;;;;;;5029398;28;20777;-91
2022/04/14 09:47:25;;;;;;;5.85;3.10;;;8.40;99.90;;;;;;5006139;28;20448;-90
2022/04/14 09:49:53;;;;;;;7.47;3.00;;;8.30;99.90;;;;;;5018119;28;20911;-92
2022/04/14 09:52:21;;;;;;;9.43;3.47;;;8.40;99.90;;;;;;5013837;28;20417;-92
2022/04/14 09:54:49;;;;;;;11.80;4.00;;;8.50;99.90;;;;;;5010464;28;20440;-92
2022/04/14 09:57:18;;;;;;;7.35;3.05;;;8.50;99.90;;;;;;4998110;28;20409;-93
2022/04/14 09:59:45;;;;;;;7.93;3.08;;;8.40;99.90;;;;;;5033849;28;20390;-93
2022/04/14 10:02:15;;;;;;;7.30;3.17;;;8.70;99.90;;;;;;5019827;28;20926;-91
2022/04/14 10:04:44;;;;;;;5.80;2.78;;;8.70;99.90;;;;;;5009563;28;20407;-92
2022/04/14 10:07:14;;;;;;;7.93;2.95;;;8.70;99.90;;;;;;4989749;28;20420;-93
2022/04/14 10:09:44;;;;;;;6.47;2.97;;;8.70;99.90;;;;;;5048309;28;20759;-91
2022/04/14 10:12:18;;;;;;;6.80;2.90;;;8.70;99.90;;;;;;5019049;28;20938;-93
2022/04/14 10:15:04;;;;;;;12.20;3.70;;;8.70;99.90;;;;;;5015487;28;20454;-91
2022/04/14 10:17:40;;;;;;;8.88;3.33;;;8.70;99.90;;;;;;5003562;28;20404;-92
2022/04/14 10:20:09;;;;;;;14.15;6.78;;;8.80;99.90;;;;;;5033018;28;20977;-91
2022/04/14 10:22:38;;;;;;;10.43;3.50;;;8.70;99.90;;;;;;5016731;28;20441;-93
2022/04/14 10:25:07;;;;;;;7.93;3.38;;;8.70;99.90;;;;;;5009695;28;20420;-92
2022/04/14 10:27:37;;;;;;;8.03;3.20;;;8.70;99.90;;;;;;5010855;28;20393;-91
2022/04/14 10:30:06;;;;;;;7.00;2.90;;;8.70;99.90;;;;;;5025945;28;20507;-91
2022/04/14 10:32:37;;;;;;;7.65;3.30;;;8.80;99.90;;;;;;5039640;28;20404;-91
2022/04/14 10:35:08;;;;;;;7.25;3.08;;;8.70;99.90;;;;;;5023937;28;20405;-91
2022/04/14 10:37:44;;;;;;;11.13;3.72;;;8.70;99.90;;;;;;5003283;28;20399;-91
2022/04/14 10:40:12;;;;;;;7.67;3.50;;;8.70;99.90;;;;;;5001532;28;20406;-91
2022/04/14 10:42:49;;;;;;;6.50;3.13;;;8.70;99.90;;;;;;5018359;28;20392;-90
2022/04/14 10:45:19;;;;;;;10.45;3.10;;;8.80;99.90;;;;;;5036594;28;20447;-91
2022/04/14 10:47:49;;;;;;;6.88;3.03;;;8.80;99.90;;;;;;5013769;28;20458;-91
2022/04/14 10:50:27;;;;;;;7.22;2.83;;;8.90;99.90;;;;;;5011221;28;20415;-92
2022/04/14 10:53:20;;;;;;;6.35;2.60;;;9.10;99.90;;;;;;5014008;28;20409;-92
2022/04/14 10:55:50;;;;;;;5.25;2.63;;;9.10;99.90;;;;;;5033161;28;20490;-92
2022/04/14 10:58:27;;;;;;;5.40;2.50;;;9.10;99.90;;;;;;5031156;28;20403;-92
2022/04/14 11:00:55;;;;;;;7.30;2.50;;;9.10;99.90;;;;;;5038639;28;20442;-90
2022/04/14 11:03:49;;;;;;;6.63;2.60;;;9.20;99.90;;;;;;5007188;28;20714;-90
2022/04/14 11:06:43;;;;;;;6.18;2.50;;;9.20;99.90;;;;;;5030982;28;20448;-87
2022/04/14 11:09:42;;;;;;;6.70;2.50;;;9.20;99.90;;;;;;5008258;28;20416;-91
2022/04/14 11:12:19;;;;;;;8.15;2.65;;;9.10;99.90;;;;;;4996986;28;20419;-90
2022/04/14 11:14:48;;;;;;;6.70;2.40;;;9.20;99.90;;;;;;4991811;28;20421;-89
2022/04/14 11:17:33;;;;;;;7.75;2.53;;;9.20;99.90;;;;;;4994441;28;20899;-92
2022/04/14 11:20:45;;;;;;;8.23;3.00;;;9.20;99.90;;;;;;5003745;28;20403;-91
2022/04/14 11:23:15;;;;;;;6.38;2.22;;;9.20;99.90;;;;;;5035632;28;20486;-90
2022/04/14 11:25:46;;;;;;;6.10;2.30;;;9.10;99.90;;;;;;4991633;28;20771;-90
2022/04/14 11:28:35;;;;;;;5.78;2.38;;;9.20;99.90;;;;;;5012147;28;20421;-90
2022/04/14 11:31:18;;;;;;;6.82;2.30;;;9.20;99.90;;;;;;5009699;28;20399;-90
2022/04/14 11:33:47;;;;;;;6.45;2.63;;;9.40;99.90;;;;;;5000855;28;20440;-90
2022/04/14 11:36:26;;;;;;;4.53;2.17;;;9.50;99.90;;;;;;5011014;28;20483;-91
2022/04/14 11:39:07;;;;;;;7.25;2.40;;;9.60;99.90;;;;;;5040929;27;20452;-90
2022/04/14 11:41:41;;;;;;;5.13;2.42;;;9.60;99.90;;;;;;5015487;28;20435;-90
2022/04/14 11:44:14;;;;;;;9.43;2.72;;;9.60;99.90;;;;;;5017886;28;20411;-90
2022/04/14 11:46:42;;;;;;;5.25;2.10;;;9.70;99.90;;;;;;5009791;28;21058;-91
2022/04/14 11:49:12;;;;;;;5.60;2.30;;;9.70;99.90;;;;;;5005918;28;20407;-90
2022/04/14 11:51:48;;;;;;;5.60;2.47;;;9.80;99.90;;;;;;5011078;28;20429;-91
2022/04/14 11:54:26;;;;;;;7.35;2.25;;;9.80;99.90;;;;;;5029972;28;20413;-89
2022/04/14 11:57:11;;;;;;;4.90;2.50;;;9.80;99.90;;;;;;5042114;28;20531;-90
2022/04/14 11:59:42;;;;;;;6.93;2.60;;;9.80;99.90;;;;;;5030710;28;20400;-91
2022/04/14 12:02:16;;;;;;;9.25;2.78;;;10.00;99.90;;;;;;4999817;28;20445;-91
2022/04/14 12:04:47;;;;;;;4.50;2.30;;;10.20;99.90;;;;;;5023620;28;20416;-91
2022/04/14 12:07:16;;;;;;;7.13;2.70;;;10.40;99.90;;;;;;5007446;28;20432;-90
2022/04/14 12:09:44;;;;;;;7.00;2.67;;;10.30;99.90;;;;;;4998368;28;20409;-90
2022/04/14 12:12:18;;;;;;;5.83;2.60;;;10.30;99.90;;;;;;5018992;28;20403;-91
2022/04/14 12:14:52;;;;;;;6.90;2.70;;;10.20;99.90;;;;;;5017814;28;20435;-90
2022/04/14 12:17:22;;;;;;;4.80;2.38;;;10.20;99.90;;;;;;5025176;28;20906;-90
2022/04/14 12:20:03;;;;;;;5.00;2.53;;;10.10;99.90;;;;;;5007798;28;20398;-91
2022/04/14 12:22:34;;;;;;;5.82;2.42;;;10.20;99.90;;;;;;4992970;28;20488;-89
2022/04/14 12:25:10;;;;;;;6.23;2.53;;;10.10;99.90;;;;;;4998368;28;20401;-90
2022/04/14 12:27:38;;;;;;;6.07;2.20;;;10.20;99.90;;;;;;5003150;28;20453;-90
2022/04/14 12:30:14;;;;;;;4.90;2.33;;;10.20;99.90;;;;;;5014052;28;20496;-89
2022/04/14 12:33:04;;;;;;;7.72;2.92;;;10.10;99.90;;;;;;5015224;28;20494;-91
2022/04/14 12:35:39;;;;;;;6.72;2.45;;;10.10;99.90;;;;;;5048105;28;20396;-90
2022/04/14 12:38:18;;;;;;;7.85;2.72;;;10.00;99.90;;;;;;5040113;28;20532;-89
2022/04/14 12:41:03;;;;;;;5.10;2.40;;;10.00;99.90;;;;;;5031951;28;20403;-90
2022/04/14 12:43:39;;;;;;;6.50;2.67;;;10.10;99.90;;;;;;4999400;28;20402;-89
2022/04/14 12:46:47;;;;;;;8.43;3.10;;;10.00;99.90;;;;;;5038794;28;20427;-90
2022/04/14 12:49:29;;;;;;;9.23;3.10;;;10.00;99.90;;;;;;5028220;28;20394;-89
2022/04/14 12:52:01;;;;;;;7.00;2.75;;;10.00;99.90;;;;;;5040226;28;20469;-90
2022/04/14 12:54:29;;;;;;;9.05;2.85;;;10.00;99.90;;;;;;5000475;28;20403;-90
2022/04/14 12:57:06;;;;;;;8.55;2.78;;;10.00;99.90;;;;;;4998302;28;20412;-90
2022/04/14 12:59:36;;;;;;;7.07;2.57;;;10.00;99.90;;;;;;5022363;28;20472;-91
2022/04/14 13:02:09;;;;;;;6.55;2.60;;;10.00;99.90;;;;;;5018404;28;20394;-88
2022/04/14 13:04:39;;;;;;;7.07;2.90;;;10.00;99.90;;;;;;5020422;28;20390;-88
2022/04/14 13:07:14;;;;;;;5.20;2.30;;;10.00;99.90;;;;;;5010903;28;20393;-89
2022/04/14 13:10:04;;;;;;;7.72;2.70;;;9.90;99.90;;;;;;5022707;28;20444;-90
2022/04/14 13:12:39;;;;;;;6.78;2.53;;;10.00;99.90;;;;;;5036015;28;20489;-90